createdAt,value
2019-03-30T00:01:49.231Z,15.80
2019-03-30T00:04:15.173Z,15.90
2019-03-30T00:06:42.083Z,15.90
2019-03-30T00:09:08.234Z,15.90
2019-03-30T00:11:34.382Z,15.90
2019-03-30T00:14:00.537Z,15.80
2019-03-30T00:16:26.707Z,15.90
2019-03-30T00:18:53.630Z,15.80
2019-03-30T00:21:19.800Z,15.80
2019-03-30T00:23:47.892Z,15.90
2019-03-30T00:26:14.056Z,15.90
2019-03-30T00:28:40.263Z,15.90
2019-03-30T00:31:06.410Z,15.80
2019-03-30T00:33:32.553Z,15.80
2019-03-30T00:35:58.725Z,15.80
2019-03-30T00:38:24.876Z,15.80
2019-03-30T00:40:51.030Z,15.90
2019-03-30T00:43:17.187Z,15.90
2019-03-30T00:45:43.336Z,15.90
2019-03-30T00:48:09.485Z,15.80
2019-03-30T00:50:35.633Z,15.80
2019-03-30T00:53:01.804Z,15.90
2019-03-30T00:55:27.957Z,15.80
2019-03-30T00:57:54.134Z,15.80
2019-03-30T01:00:20.276Z,15.80
2019-03-30T01:02:46.449Z,15.90
2019-03-30T01:05:12.600Z,15.80
2019-03-30T01:07:38.776Z,15.80
2019-03-30T01:10:04.934Z,15.80
2019-03-30T01:12:31.097Z,15.80
2019-03-30T01:14:57.256Z,15.80
2019-03-30T01:17:23.424Z,15.80
2019-03-30T01:20:02.228Z,15.80
2019-03-30T01:22:15.791Z,15.80
2019-03-30T01:24:42.125Z,15.80
2019-03-30T01:27:08.274Z,15.80
2019-03-30T01:29:34.425Z,15.80
2019-03-30T01:32:00.573Z,15.80
2019-03-30T01:34:26.728Z,15.80
2019-03-30T01:36:52.916Z,15.80
2019-03-30T01:39:19.837Z,15.80
2019-03-30T01:41:46.021Z,15.80
2019-03-30T01:44:12.174Z,15.80
2019-03-30T01:46:39.090Z,15.80
2019-03-30T01:49:05.241Z,15.80
2019-03-30T01:51:31.389Z,15.80
2019-03-30T01:53:57.560Z,15.80
2019-03-30T01:56:23.713Z,15.80
2019-03-30T01:58:50.648Z,15.80
2019-03-30T02:01:16.809Z,15.80
2019-03-30T02:03:42.978Z,15.80
2019-03-30T02:06:09.129Z,15.80
2019-03-30T02:08:35.315Z,15.80
2019-03-30T02:11:01.467Z,15.80
2019-03-30T02:13:27.638Z,15.80
2019-03-30T02:15:53.796Z,15.80
2019-03-30T02:18:19.947Z,15.80
2019-03-30T02:20:46.099Z,15.80
2019-03-30T02:23:12.247Z,15.80
2019-03-30T02:25:38.401Z,15.70
2019-03-30T02:28:06.904Z,15.70
2019-03-30T02:30:30.751Z,15.80
2019-03-30T02:32:56.906Z,15.80
2019-03-30T02:35:26.468Z,15.80
2019-03-30T02:37:49.252Z,15.70
2019-03-30T02:40:15.407Z,15.70
2019-03-30T02:42:41.563Z,15.70
2019-03-30T02:45:07.740Z,15.70
2019-03-30T02:47:33.901Z,15.70
2019-03-30T02:50:00.056Z,15.70
2019-03-30T02:52:26.241Z,15.70
2019-03-30T02:54:52.390Z,15.80
2019-03-30T02:57:20.518Z,15.70
2019-03-30T02:59:46.690Z,15.70
2019-03-30T03:02:12.954Z,15.80
2019-03-30T03:04:39.052Z,15.80
2019-03-30T03:07:05.202Z,15.70
2019-03-30T03:09:31.377Z,15.70
2019-03-30T03:11:57.529Z,15.70
2019-03-30T03:14:23.701Z,15.60
2019-03-30T03:16:49.865Z,15.60
2019-03-30T03:19:16.021Z,15.70
2019-03-30T03:21:42.176Z,15.70
2019-03-30T03:24:08.330Z,15.70
2019-03-30T03:26:34.481Z,15.70
2019-03-30T03:29:00.632Z,15.70
2019-03-30T03:31:26.777Z,15.70
2019-03-30T03:33:52.929Z,15.70
2019-03-30T03:36:19.089Z,15.70
2019-03-30T03:38:46.012Z,15.70
2019-03-30T03:41:12.165Z,15.70
2019-03-30T03:43:38.328Z,15.70
2019-03-30T03:46:04.497Z,15.70
2019-03-30T03:48:30.648Z,15.60
2019-03-30T03:50:57.564Z,15.70
2019-03-30T03:53:23.716Z,15.60
2019-03-30T03:55:49.870Z,15.60
2019-03-30T03:58:16.016Z,15.70
2019-03-30T04:00:42.172Z,15.70
2019-03-30T04:03:08.330Z,15.70
2019-03-30T04:05:34.495Z,15.60
2019-03-30T04:08:00.653Z,15.60
2019-03-30T04:10:26.824Z,15.60
2019-03-30T04:12:52.974Z,15.70
2019-03-30T04:15:19.165Z,15.60
2019-03-30T04:17:46.089Z,15.60
2019-03-30T04:20:12.250Z,15.60
2019-03-30T04:22:38.400Z,15.60
2019-03-30T04:25:04.545Z,15.60
2019-03-30T04:27:30.705Z,15.60
2019-03-30T04:29:56.856Z,15.60
2019-03-30T04:32:23.012Z,15.60
2019-03-30T04:34:49.163Z,15.60
2019-03-30T04:37:15.312Z,15.60
2019-03-30T04:39:41.466Z,15.60
2019-03-30T04:42:07.619Z,15.70
2019-03-30T04:44:33.778Z,15.60
2019-03-30T04:47:00.089Z,15.60
2019-03-30T04:49:26.254Z,15.60
2019-03-30T04:51:57.922Z,15.60
2019-03-30T04:54:18.602Z,15.60
2019-03-30T04:56:44.782Z,15.60
2019-03-30T04:59:10.930Z,15.60
2019-03-30T05:01:37.092Z,15.60
2019-03-30T05:04:04.017Z,15.60
2019-03-30T05:06:30.185Z,15.60
2019-03-30T05:08:56.339Z,15.60
2019-03-30T05:11:22.509Z,15.60
2019-03-30T05:13:48.653Z,15.60
2019-03-30T05:16:15.917Z,15.60
2019-03-30T05:18:42.067Z,15.60
2019-03-30T05:21:08.221Z,15.60
2019-03-30T05:23:34.380Z,15.60
2019-03-30T05:26:01.304Z,15.60
2019-03-30T05:28:27.497Z,15.60
2019-03-30T05:30:53.649Z,15.60
2019-03-30T05:33:19.798Z,15.60
2019-03-30T05:35:45.956Z,15.60
2019-03-30T05:38:12.101Z,15.60
2019-03-30T05:40:38.248Z,15.60
2019-03-30T05:43:04.405Z,15.60
2019-03-30T05:45:30.556Z,15.50
2019-03-30T05:47:56.710Z,15.50
2019-03-30T05:50:22.853Z,15.50
2019-03-30T05:52:49.015Z,15.50
2019-03-30T05:55:15.167Z,15.50
2019-03-30T05:57:41.327Z,15.50
2019-03-30T06:00:07.481Z,15.50
2019-03-30T06:02:33.660Z,15.50
2019-03-30T06:05:03.141Z,15.50
2019-03-30T06:07:26.021Z,15.50
2019-03-30T06:09:52.164Z,15.50
2019-03-30T06:12:18.337Z,15.50
2019-03-30T06:14:44.497Z,15.50
2019-03-30T06:17:10.660Z,15.50
2019-03-30T06:19:36.810Z,15.50
2019-03-30T06:22:03.746Z,15.50
2019-03-30T06:24:29.909Z,15.50
2019-03-30T06:26:56.074Z,15.50
2019-03-30T06:29:22.221Z,15.50
2019-03-30T06:31:48.389Z,15.50
2019-03-30T06:34:14.545Z,15.50
2019-03-30T06:36:40.700Z,15.50
2019-03-30T06:39:06.855Z,15.60
2019-03-30T06:41:33.002Z,15.50
2019-03-30T06:43:59.324Z,15.50
2019-03-30T06:46:25.489Z,15.50
2019-03-30T06:48:52.422Z,15.60
2019-03-30T06:51:18.735Z,15.60
2019-03-30T06:53:44.890Z,15.60
2019-03-30T06:56:11.055Z,15.60
2019-03-30T06:58:37.973Z,15.60
2019-03-30T07:01:04.139Z,15.60
2019-03-30T07:03:30.290Z,15.60
2019-03-30T07:05:56.441Z,15.60
2019-03-30T07:08:22.594Z,15.60
2019-03-30T07:10:48.746Z,15.60
2019-03-30T07:13:14.921Z,15.60
2019-03-30T07:15:41.987Z,15.70
2019-03-30T07:18:08.133Z,15.70
2019-03-30T07:20:34.289Z,15.70
2019-03-30T07:23:11.229Z,15.60
2019-03-30T07:25:26.656Z,15.70
2019-03-30T07:27:52.816Z,15.60
2019-03-30T07:30:19.143Z,15.60
2019-03-30T07:32:45.310Z,15.70
2019-03-30T07:35:12.220Z,15.60
2019-03-30T07:37:38.386Z,15.60
2019-03-30T07:40:04.528Z,15.60
2019-03-30T07:42:30.685Z,15.70
2019-03-30T07:44:56.832Z,15.70
2019-03-30T07:47:23.000Z,15.70
2019-03-30T07:49:49.153Z,15.70
2019-03-30T07:52:15.300Z,15.70
2019-03-30T07:54:41.459Z,15.70
2019-03-30T07:57:16.821Z,15.70
2019-03-30T07:59:33.816Z,15.70
2019-03-30T08:02:00.729Z,15.70
2019-03-30T08:04:28.660Z,15.70
2019-03-30T08:06:53.083Z,15.70
2019-03-30T08:09:19.238Z,15.80
2019-03-30T08:11:45.383Z,15.70
2019-03-30T08:14:12.297Z,15.70
2019-03-30T08:16:38.450Z,15.70
2019-03-30T08:19:04.609Z,15.70
2019-03-30T08:21:30.773Z,15.70
2019-03-30T08:23:56.920Z,15.70
2019-03-30T08:26:23.841Z,15.70
2019-03-30T08:28:49.992Z,15.70
2019-03-30T08:31:16.144Z,15.80
2019-03-30T08:33:42.300Z,15.80
2019-03-30T08:36:08.448Z,15.70
2019-03-30T08:38:35.395Z,15.80
2019-03-30T08:41:01.541Z,15.80
2019-03-30T08:43:27.693Z,15.80
2019-03-30T08:45:53.841Z,15.80
2019-03-30T08:48:19.993Z,15.80
2019-03-30T08:50:46.133Z,15.80
2019-03-30T08:53:12.289Z,15.80
2019-03-30T08:55:38.438Z,15.80
2019-03-30T08:58:04.608Z,15.80
2019-03-30T09:00:30.757Z,15.80
2019-03-30T09:02:56.925Z,15.80
2019-03-30T09:05:23.074Z,15.80
2019-03-30T09:07:49.224Z,15.80
2019-03-30T09:10:15.907Z,15.80
2019-03-30T09:12:42.061Z,15.80
2019-03-30T09:15:08.231Z,15.80
2019-03-30T09:17:37.099Z,15.90
2019-03-30T09:20:00.618Z,15.80
2019-03-30T09:22:26.769Z,15.80
2019-03-30T09:24:53.762Z,15.80
2019-03-30T09:27:19.877Z,15.80
2019-03-30T09:29:46.040Z,15.90
2019-03-30T09:32:14.569Z,15.80
2019-03-30T09:34:38.393Z,15.80
2019-03-30T09:37:04.548Z,15.90
2019-03-30T09:39:31.467Z,15.80
2019-03-30T09:41:57.612Z,15.80
2019-03-30T09:44:23.769Z,15.80
2019-03-30T09:46:49.916Z,15.80
2019-03-30T09:49:16.089Z,15.90
2019-03-30T09:51:43.000Z,15.80
2019-03-30T09:54:22.857Z,15.80
2019-03-30T09:56:35.374Z,15.90
2019-03-30T09:59:01.544Z,15.90
2019-03-30T10:01:27.701Z,15.90
2019-03-30T10:03:53.864Z,15.90
2019-03-30T10:06:20.789Z,15.90
2019-03-30T10:08:46.945Z,15.90
2019-03-30T10:11:13.110Z,15.90
2019-03-30T10:13:39.261Z,15.90
2019-03-30T10:16:05.650Z,15.90
2019-03-30T10:18:31.803Z,15.90
2019-03-30T10:20:57.952Z,15.90
2019-03-30T10:23:24.112Z,15.90
2019-03-30T10:25:51.030Z,15.90
2019-03-30T10:28:17.185Z,15.90
2019-03-30T10:30:43.340Z,15.90
2019-03-30T10:33:09.498Z,15.90
2019-03-30T10:35:35.652Z,15.90
2019-03-30T10:38:02.568Z,15.90
2019-03-30T10:40:28.724Z,15.90
2019-03-30T10:42:54.872Z,15.90
2019-03-30T10:45:21.029Z,15.90
2019-03-30T10:47:47.181Z,15.90
2019-03-30T10:50:13.332Z,16.00
2019-03-30T10:52:39.485Z,15.90
2019-03-30T10:55:05.635Z,15.90
2019-03-30T10:57:31.786Z,15.90
2019-03-30T10:59:57.960Z,15.90
2019-03-30T11:02:24.120Z,16.00
2019-03-30T11:04:50.274Z,16.00
2019-03-30T11:07:16.424Z,16.00
2019-03-30T11:09:42.596Z,16.00
2019-03-30T11:12:08.750Z,16.00
2019-03-30T11:14:34.924Z,16.00
2019-03-30T11:17:01.081Z,16.00
2019-03-30T11:19:27.229Z,16.00
2019-03-30T11:21:53.380Z,16.00
2019-03-30T11:24:19.528Z,16.00
2019-03-30T11:26:45.721Z,16.00
2019-03-30T11:29:14.550Z,16.00
2019-03-30T11:31:40.701Z,16.00
2019-03-30T11:34:06.865Z,16.00
2019-03-30T11:36:33.029Z,16.00
2019-03-30T11:38:59.177Z,16.00
2019-03-30T11:41:25.335Z,16.00
2019-03-30T11:43:51.486Z,16.00
2019-03-30T11:46:19.412Z,16.00
2019-03-30T11:48:45.637Z,16.10
2019-03-30T11:51:11.781Z,16.00
2019-03-30T11:53:37.932Z,16.10
2019-03-30T11:56:04.095Z,16.00
2019-03-30T11:58:30.250Z,16.00
2019-03-30T12:00:56.407Z,16.00
2019-03-30T12:03:22.570Z,16.10
2019-03-30T12:05:48.789Z,16.00
2019-03-30T12:08:14.949Z,16.00
2019-03-30T12:10:41.277Z,16.10
2019-03-30T12:13:07.433Z,16.10
2019-03-30T12:15:33.587Z,16.10
2019-03-30T12:17:59.745Z,16.00
2019-03-30T12:20:25.896Z,15.60
2019-03-30T12:22:52.060Z,15.40
2019-03-30T12:25:18.233Z,15.50
2019-03-30T12:27:44.380Z,15.60
2019-03-30T12:30:10.587Z,15.60
2019-03-30T12:32:36.733Z,15.70
2019-03-30T12:35:02.921Z,15.90
2019-03-30T12:37:29.832Z,16.20
2019-03-30T12:39:58.235Z,16.20
2019-03-30T12:42:22.184Z,16.30
2019-03-30T12:44:48.333Z,16.30
2019-03-30T12:47:14.487Z,16.50
2019-03-30T12:49:41.404Z,16.60
2019-03-30T12:52:07.568Z,16.60
2019-03-30T12:54:33.876Z,16.60
2019-03-30T12:57:00.049Z,16.70
2019-03-30T12:59:26.238Z,16.80
2019-03-30T13:01:52.389Z,16.80
2019-03-30T13:04:18.536Z,16.80
2019-03-30T13:06:44.684Z,16.90
2019-03-30T13:09:10.837Z,16.90
2019-03-30T13:11:37.006Z,16.90
2019-03-30T13:14:03.158Z,16.90
2019-03-30T13:16:29.317Z,17.00
2019-03-30T13:18:55.479Z,17.00
2019-03-30T13:21:21.641Z,17.10
2019-03-30T13:23:47.796Z,17.10
2019-03-30T13:26:13.946Z,17.20
2019-03-30T13:28:40.097Z,17.20
2019-03-30T13:31:06.257Z,17.20
2019-03-30T13:33:32.409Z,17.20
2019-03-30T13:35:58.571Z,17.30
2019-03-30T13:38:25.961Z,17.30
2019-03-30T13:40:50.924Z,17.30
2019-03-30T13:43:17.075Z,17.30
2019-03-30T13:45:43.224Z,17.30
2019-03-30T13:48:09.377Z,17.40
2019-03-30T13:50:35.542Z,17.50
2019-03-30T13:53:01.695Z,17.50
2019-03-30T13:55:27.852Z,17.40
2019-03-30T13:57:54.010Z,17.50
2019-03-30T14:00:20.169Z,17.60
2019-03-30T14:02:46.328Z,17.60
2019-03-30T14:05:12.476Z,17.60
2019-03-30T14:07:38.627Z,17.60
2019-03-30T14:10:04.778Z,17.60
2019-03-30T14:12:30.930Z,17.70
2019-03-30T14:14:57.087Z,17.70
2019-03-30T14:17:24.002Z,17.70
2019-03-30T14:19:50.147Z,17.70
2019-03-30T14:22:16.299Z,17.60
2019-03-30T14:24:42.457Z,17.60
2019-03-30T14:27:08.609Z,17.50
2019-03-30T14:29:34.752Z,17.60
2019-03-30T14:32:00.916Z,17.70
2019-03-30T14:34:27.072Z,17.80
2019-03-30T14:36:53.221Z,17.70
2019-03-30T14:39:19.364Z,17.70
2019-03-30T14:41:45.515Z,17.80
2019-03-30T14:44:11.672Z,17.80
2019-03-30T14:46:37.820Z,17.90
2019-03-30T14:49:03.975Z,17.90
2019-03-30T14:51:30.125Z,17.80
2019-03-30T14:53:57.039Z,18.00
2019-03-30T14:56:23.202Z,18.00
2019-03-30T14:58:49.357Z,18.00
2019-03-30T15:01:15.525Z,17.90
2019-03-30T15:03:41.693Z,18.00
2019-03-30T15:06:07.839Z,18.10
2019-03-30T15:08:33.996Z,18.10
2019-03-30T15:11:00.144Z,18.00
2019-03-30T15:13:26.298Z,18.00
2019-03-30T15:15:52.445Z,18.10
2019-03-30T15:18:18.598Z,18.10
2019-03-30T15:20:44.761Z,18.10
2019-03-30T15:23:10.935Z,18.00
2019-03-30T15:25:37.107Z,18.10
2019-03-30T15:28:03.280Z,18.20
2019-03-30T15:30:29.436Z,18.20
2019-03-30T15:32:55.616Z,18.20
2019-03-30T15:35:21.756Z,18.20
2019-03-30T15:37:47.925Z,18.20
2019-03-30T15:40:14.068Z,18.30
2019-03-30T15:42:40.791Z,18.30
2019-03-30T15:45:06.467Z,18.30
2019-03-30T15:47:32.632Z,18.30
2019-03-30T15:49:58.790Z,18.30
2019-03-30T15:52:24.961Z,18.30
2019-03-30T15:54:51.108Z,18.30
2019-03-30T15:57:17.281Z,18.30
2019-03-30T15:59:43.429Z,18.30
2019-03-30T16:02:09.593Z,18.40
2019-03-30T16:04:35.751Z,18.40
2019-03-30T16:07:02.685Z,18.40
2019-03-30T16:09:28.838Z,18.30
2019-03-30T16:11:55.000Z,18.40
2019-03-30T16:14:21.154Z,18.40
2019-03-30T16:16:47.328Z,18.40
2019-03-30T16:19:13.487Z,18.40
2019-03-30T16:21:39.640Z,18.40
2019-03-30T16:24:05.798Z,18.40
2019-03-30T16:26:41.808Z,18.40
2019-03-30T16:28:58.120Z,18.40
2019-03-30T16:31:24.268Z,18.40
2019-03-30T16:33:50.422Z,18.40
2019-03-30T16:36:16.573Z,18.40
2019-03-30T16:38:42.757Z,18.50
2019-03-30T16:41:08.913Z,18.40
2019-03-30T16:43:35.080Z,18.40
2019-03-30T16:46:01.234Z,18.50
2019-03-30T16:48:27.405Z,18.50
2019-03-30T16:50:53.561Z,18.50
2019-03-30T16:53:19.736Z,18.50
2019-03-30T16:55:45.885Z,18.50
2019-03-30T16:58:12.061Z,18.50
2019-03-30T17:00:38.209Z,18.60
2019-03-30T17:03:04.373Z,18.80
2019-03-30T17:05:30.525Z,18.80
2019-03-30T17:07:56.697Z,18.80
2019-03-30T17:10:22.849Z,18.70
2019-03-30T17:12:49.016Z,18.70
2019-03-30T17:15:15.168Z,18.60
2019-03-30T17:17:41.345Z,18.50
2019-03-30T17:20:08.270Z,18.40
2019-03-30T17:22:34.441Z,18.40
2019-03-30T17:25:00.609Z,18.40
2019-03-30T17:27:26.788Z,18.40
2019-03-30T17:29:52.941Z,18.30
2019-03-30T17:32:19.096Z,18.30
2019-03-30T17:34:45.255Z,18.30
2019-03-30T17:37:14.340Z,18.20
2019-03-30T17:39:37.604Z,18.20
2019-03-30T17:42:03.786Z,18.20
2019-03-30T17:44:29.957Z,18.10
2019-03-30T17:46:56.114Z,18.10
2019-03-30T17:49:22.285Z,18.10
2019-03-30T17:51:48.437Z,18.10
2019-03-30T17:54:14.623Z,18.00
2019-03-30T17:56:40.781Z,18.00
2019-03-30T17:59:06.959Z,18.00
2019-03-30T18:01:33.174Z,18.00
2019-03-30T18:03:59.336Z,18.00
2019-03-30T18:06:25.496Z,17.90
2019-03-30T18:08:52.428Z,17.90
2019-03-30T18:11:18.585Z,17.90
2019-03-30T18:13:44.744Z,17.90
2019-03-30T18:16:10.906Z,17.80
2019-03-30T18:18:37.081Z,17.80
2019-03-30T18:21:03.233Z,17.80
2019-03-30T18:23:29.410Z,17.80
2019-03-30T18:25:55.560Z,17.80
2019-03-30T18:28:27.312Z,17.80
2019-03-30T18:30:47.912Z,17.80
2019-03-30T18:33:14.083Z,17.70
2019-03-30T18:35:40.242Z,17.80
2019-03-30T18:38:06.415Z,17.80
2019-03-30T18:40:32.586Z,17.80
2019-03-30T18:42:58.733Z,17.80
2019-03-30T18:45:24.908Z,17.80
2019-03-30T18:47:51.056Z,17.80
2019-03-30T18:50:17.231Z,17.80
2019-03-30T18:52:43.381Z,17.80
2019-03-30T18:55:09.554Z,17.70
2019-03-30T18:57:35.707Z,17.80
2019-03-30T19:00:01.917Z,17.80
2019-03-30T19:02:28.164Z,17.80
2019-03-30T19:04:54.482Z,17.70
2019-03-30T19:07:20.641Z,17.70
2019-03-30T19:09:46.792Z,17.70
2019-03-30T19:12:12.969Z,17.60
2019-03-30T19:14:39.131Z,17.60
2019-03-30T19:17:05.281Z,17.60
2019-03-30T19:19:32.203Z,17.60
2019-03-30T19:21:58.364Z,17.60
2019-03-30T19:24:24.512Z,17.60
2019-03-30T19:26:50.682Z,17.60
2019-03-30T19:29:16.846Z,17.60
2019-03-30T19:31:42.997Z,17.60
2019-03-30T19:34:09.161Z,17.60
2019-03-30T19:36:35.326Z,17.60
2019-03-30T19:39:01.473Z,17.60
2019-03-30T19:41:27.638Z,17.60
2019-03-30T19:43:53.792Z,17.60
2019-03-30T19:46:19.969Z,17.60
2019-03-30T19:48:46.119Z,17.60
2019-03-30T19:51:12.281Z,17.60
2019-03-30T19:53:40.046Z,17.60
2019-03-30T19:56:06.215Z,17.60
2019-03-30T19:58:32.360Z,17.60
2019-03-30T20:00:58.519Z,17.60
2019-03-30T20:03:24.667Z,17.60
2019-03-30T20:05:50.837Z,17.60
2019-03-30T20:08:16.989Z,17.60
2019-03-30T20:10:43.154Z,17.60
2019-03-30T20:13:09.411Z,17.50
2019-03-30T20:15:35.581Z,17.50
2019-03-30T20:18:01.742Z,17.50
2019-03-30T20:20:27.904Z,17.50
2019-03-30T20:22:54.063Z,17.50
2019-03-30T20:25:20.225Z,17.50
2019-03-30T20:27:46.382Z,17.50
2019-03-30T20:30:12.716Z,17.50
2019-03-30T20:32:38.885Z,17.50
2019-03-30T20:35:05.058Z,17.40
2019-03-30T20:37:31.210Z,17.40
2019-03-30T20:39:57.376Z,17.50
2019-03-30T20:42:23.531Z,17.40
2019-03-30T20:44:49.705Z,17.40
2019-03-30T20:47:15.861Z,17.40
2019-03-30T20:49:42.136Z,17.40
2019-03-30T20:52:08.291Z,17.40
2019-03-30T20:54:34.442Z,17.40
2019-03-30T20:57:00.610Z,17.40
2019-03-30T20:59:39.396Z,17.30
2019-03-30T21:01:52.965Z,17.40
2019-03-30T21:04:19.120Z,17.40
2019-03-30T21:06:45.303Z,17.30
2019-03-30T21:09:11.452Z,17.40
2019-03-30T21:11:37.616Z,17.30
2019-03-30T21:14:03.766Z,17.30
2019-03-30T21:16:30.706Z,17.30
2019-03-30T21:18:56.862Z,17.30
2019-03-30T21:21:23.038Z,17.30
2019-03-30T21:23:49.189Z,17.30
2019-03-30T21:26:15.461Z,17.30
2019-03-30T21:28:41.609Z,17.30
2019-03-30T21:31:07.786Z,17.30
2019-03-30T21:33:33.953Z,17.30
2019-03-30T21:36:00.124Z,17.30
2019-03-30T21:38:26.284Z,17.30
2019-03-30T21:40:52.468Z,17.20
2019-03-30T21:43:19.830Z,17.30
2019-03-30T21:45:44.908Z,17.30
2019-03-30T21:48:11.059Z,17.20
2019-03-30T21:50:37.381Z,17.30
2019-03-30T21:53:03.533Z,17.20
2019-03-30T21:55:29.708Z,17.20
2019-03-30T21:57:55.861Z,17.20
2019-03-30T22:00:22.024Z,17.20
2019-03-30T22:02:48.185Z,17.20
2019-03-30T22:05:14.402Z,17.20
2019-03-30T22:07:40.569Z,17.20
2019-03-30T22:10:06.734Z,17.20
2019-03-30T22:12:32.900Z,17.30
2019-03-30T22:14:59.053Z,17.20
2019-03-30T22:17:25.230Z,17.20
2019-03-30T22:19:51.389Z,17.20
2019-03-30T22:22:17.561Z,17.20
2019-03-30T22:24:43.724Z,17.30
2019-03-30T22:27:09.900Z,17.20
2019-03-30T22:29:36.056Z,17.20
2019-03-30T22:32:02.400Z,17.20
2019-03-30T22:34:28.568Z,17.20
2019-03-30T22:36:54.748Z,17.20
2019-03-30T22:39:20.897Z,17.20
2019-03-30T22:41:47.062Z,17.20
2019-03-30T22:44:13.208Z,17.20
2019-03-30T22:46:39.365Z,17.20
2019-03-30T22:49:05.515Z,17.20
2019-03-30T22:51:31.668Z,17.20
2019-03-30T22:53:57.808Z,17.20
2019-03-30T22:56:24.720Z,17.20
2019-03-30T22:58:50.872Z,17.20
2019-03-30T23:01:17.048Z,17.20
2019-03-30T23:03:43.198Z,17.20
2019-03-30T23:06:09.576Z,17.20
2019-03-30T23:08:35.732Z,17.20
2019-03-30T23:11:01.932Z,17.20
2019-03-30T23:13:28.110Z,17.20
2019-03-30T23:15:54.417Z,17.20
2019-03-30T23:18:20.590Z,17.20
2019-03-30T23:20:46.741Z,17.20
2019-03-30T23:23:12.948Z,17.20
2019-03-30T23:25:39.873Z,17.20
2019-03-30T23:28:06.042Z,17.20
2019-03-30T23:30:32.195Z,17.20
2019-03-30T23:32:58.409Z,17.20
2019-03-30T23:35:24.563Z,17.20
2019-03-30T23:37:50.724Z,17.20
2019-03-30T23:40:16.869Z,17.20
2019-03-30T23:42:43.046Z,17.20
2019-03-30T23:45:09.195Z,17.20
2019-03-30T23:47:35.375Z,17.20
2019-03-30T23:50:01.522Z,17.20
2019-03-30T23:52:27.884Z,17.20
2019-03-30T23:54:55.006Z,17.20
2019-03-30T23:57:21.164Z,17.20
2019-03-30T23:59:47.327Z,17.20
